This is the latest recevied weather packets stored in our database for station/object FREPRT-WX. If no packets are shown the sender has not sent any weather packets the latest 10 day(s).
| Time | Temp. | Humidity | Pressure | Rain* | Wind** | Luminosity | Snow |
|---|---|---|---|---|---|---|---|
| 1777721460 | 0° C | 87% | 989.4 hPa | 0 mm | - | - | - |
| 1777720538 | -0.56° C | 87% | 989.4 hPa | 0 mm | - | - | - |
| 1777719667 | -0.56° C | 87% | 989.4 hPa | 0 mm | - | - | - |
| 1777718738 | -0.56° C | 86% | 989.2 hPa | 0 mm | - | - | - |
| 1777717856 | -0.56° C | 89% | 989.5 hPa | 0 mm | - | - | - |
| 1777716938 | -0.56° C | 89% | 989.5 hPa | 0 mm | - | - | - |
| 1777716066 | -0.56° C | 89% | 989.5 hPa | 0 mm | - | - | - |
| 1777715138 | -0.56° C | 86% | 988.6 hPa | 0 mm | - | - | - |
| 1777713337 | -0.56° C | 88% | 989 hPa | 0 mm | - | - | - |
| 1777712466 | -0.56° C | 88% | 989 hPa | 0 mm | - | - | - |
| 1777711536 | -0.56° C | 83% | 988.6 hPa | 0 mm | - | - | - |
| 1777710657 | -0.56° C | 82% | 988.8 hPa | 0 mm | - | - | - |
| 1777709738 | -0.56° C | 82% | 988.8 hPa | 0 mm | - | - | - |
| 1777708868 | 0° C | 82% | 988.8 hPa | 0 mm | - | - | - |
| 1777707937 | 0° C | 81% | 988.2 hPa | 0 mm | - | - | - |
| 1777707052 | 0° C | 81% | 988.2 hPa | 0 mm | - | - | - |
| 1777706138 | 0° C | 81% | 988.2 hPa | 0 mm | - | - | - |
| 1777705265 | 0° C | 81% | 988.2 hPa | 0 mm | - | - | - |
| 1777704338 | 0° C | 79% | 989.3 hPa | 0 mm | - | - | - |
| 1777703458 | 0.56° C | 79% | 989.2 hPa | 0 mm | - | - | - |
| 1777702537 | 0.56° C | 79% | 989.2 hPa | 0 mm | - | - | - |
| 1777701676 | 0.56° C | 79% | 989.2 hPa | 0 mm | - | - | - |
| 1777700738 | 0.56° C | 75% | 988.4 hPa | 0 mm | - | - | - |
| 1777699857 | 1.11° C | 80% | 988.8 hPa | 0 mm | - | - | - |
| 1777698937 | 1.11° C | 80% | 988.8 hPa | 0 mm | - | - | - |
* Rain latest hour (hover to see other rain measurements)
** Current wind speed in m/s (hover to see current wind gust speed)